createdAt,value
2022-08-18T00:00:15.240Z,19.49
2022-08-18T00:01:16.490Z,19.47
2022-08-18T00:02:20.646Z,19.46
2022-08-18T00:03:53.280Z,19.45
2022-08-18T00:04:36.236Z,19.45
2022-08-18T00:05:33.475Z,19.44
2022-08-18T00:06:38.291Z,19.44
2022-08-18T00:07:41.061Z,19.43
2022-08-18T00:08:45.576Z,19.42
2022-08-18T00:09:48.222Z,19.39
2022-08-18T00:10:51.427Z,19.37
2022-08-18T00:11:54.061Z,19.38
2022-08-18T00:12:58.615Z,19.37
2022-08-18T00:14:01.237Z,19.34
2022-08-18T00:15:03.852Z,19.35
2022-08-18T00:16:07.232Z,19.35
2022-08-18T00:17:10.312Z,19.31
2022-08-18T00:18:12.883Z,19.32
2022-08-18T00:19:15.546Z,19.28
2022-08-18T00:20:19.451Z,19.28
2022-08-18T00:21:22.210Z,19.23
2022-08-18T00:22:25.093Z,19.22
2022-08-18T00:23:27.716Z,19.23
2022-08-18T00:24:30.427Z,19.24
2022-08-18T00:25:33.094Z,19.22
2022-08-18T00:26:37.102Z,19.22
2022-08-18T00:27:39.972Z,19.22
2022-08-18T00:28:42.639Z,19.22
2022-08-18T00:29:45.319Z,19.23
2022-08-18T00:30:48.269Z,19.22
2022-08-18T00:31:52.786Z,19.24
2022-08-18T00:32:55.322Z,19.25
2022-08-18T00:34:00.625Z,19.26
2022-08-18T00:35:03.262Z,19.25
2022-08-18T00:36:06.268Z,19.26
2022-08-18T00:37:08.910Z,19.26
2022-08-18T00:38:23.388Z,19.26
2022-08-18T00:39:16.095Z,19.25
2022-08-18T00:40:20.083Z,19.25
2022-08-18T00:41:23.991Z,19.23
2022-08-18T00:42:27.538Z,19.22
2022-08-18T00:43:31.376Z,19.21
2022-08-18T00:44:33.983Z,19.20
2022-08-18T00:45:36.614Z,19.17
2022-08-18T00:46:40.015Z,19.16
2022-08-18T00:47:43.359Z,19.14
2022-08-18T00:48:48.257Z,19.12
2022-08-18T00:49:50.568Z,19.09
2022-08-18T00:50:53.444Z,19.06
2022-08-18T00:51:56.116Z,19.06
2022-08-18T00:52:58.786Z,19.04
2022-08-18T00:54:01.453Z,19.03
2022-08-18T00:55:04.469Z,19.02
2022-08-18T00:56:07.610Z,19.00
2022-08-18T00:57:10.284Z,19.02
2022-08-18T00:58:12.954Z,19.00
2022-08-18T00:59:15.643Z,18.98
2022-08-18T01:00:19.006Z,18.96
2022-08-18T01:01:21.819Z,18.91
2022-08-18T01:02:24.683Z,18.93
2022-08-18T01:03:27.670Z,18.90
2022-08-18T01:04:30.808Z,18.88
2022-08-18T01:05:33.471Z,18.86
2022-08-18T01:06:36.961Z,18.84
2022-08-18T01:07:39.836Z,18.83
2022-08-18T01:08:42.512Z,18.83
2022-08-18T01:09:45.195Z,18.83
2022-08-18T01:10:49.073Z,18.80
2022-08-18T01:11:52.049Z,18.79
2022-08-18T01:12:55.159Z,18.78
2022-08-18T01:13:57.655Z,18.76
2022-08-18T01:15:00.676Z,18.77
2022-08-18T01:16:03.697Z,18.74
2022-08-18T01:17:06.314Z,18.74
2022-08-18T01:18:08.919Z,18.74
2022-08-18T01:19:11.514Z,18.72
2022-08-18T01:20:14.905Z,18.70
2022-08-18T01:21:17.609Z,18.68
2022-08-18T01:22:20.583Z,18.66
2022-08-18T01:23:25.011Z,18.65
2022-08-18T01:24:27.669Z,18.65
2022-08-18T01:25:30.332Z,18.65
2022-08-18T01:26:33.412Z,18.65
2022-08-18T01:27:36.083Z,18.64
2022-08-18T01:28:38.746Z,18.63
2022-08-18T01:29:43.527Z,18.63
2022-08-18T01:30:46.238Z,18.61
2022-08-18T01:31:54.145Z,18.60
2022-08-18T01:32:53.321Z,18.58
2022-08-18T01:33:56.087Z,18.58
2022-08-18T01:34:58.764Z,18.59
2022-08-18T01:36:01.447Z,18.54
2022-08-18T01:37:04.095Z,18.51
2022-08-18T01:38:06.663Z,18.49
2022-08-18T01:39:09.193Z,18.48
2022-08-18T01:41:26.002Z,18.48
2022-08-18T01:41:27.426Z,18.48
2022-08-18T01:42:21.746Z,18.46
2022-08-18T01:43:24.721Z,18.45
2022-08-18T01:44:27.699Z,18.42
2022-08-18T01:45:30.368Z,18.42
2022-08-18T01:46:33.354Z,18.42
2022-08-18T01:47:47.416Z,18.42
2022-08-18T01:48:40.527Z,18.41
2022-08-18T01:49:43.289Z,18.39
2022-08-18T01:50:46.478Z,18.40
2022-08-18T01:51:49.146Z,18.39
2022-08-18T01:52:51.786Z,18.38
2022-08-18T01:53:54.388Z,18.36
2022-08-18T01:54:56.945Z,18.35
2022-08-18T01:55:59.523Z,18.33
2022-08-18T01:57:02.827Z,18.30
2022-08-18T01:58:05.483Z,18.25
2022-08-18T01:59:08.140Z,18.23
2022-08-18T02:00:12.575Z,18.20
2022-08-18T02:01:15.670Z,18.17
2022-08-18T02:02:18.799Z,18.17
2022-08-18T02:03:21.436Z,18.15
2022-08-18T02:04:34.927Z,18.16
2022-08-18T02:05:28.556Z,18.15
2022-08-18T02:06:33.881Z,18.09
2022-08-18T02:07:36.647Z,18.10
2022-08-18T02:08:39.529Z,18.10
2022-08-18T02:09:44.047Z,18.12
2022-08-18T02:10:48.210Z,18.08
2022-08-18T02:11:50.918Z,18.10
2022-08-18T02:12:55.435Z,18.09
2022-08-18T02:13:58.408Z,18.04
2022-08-18T02:15:01.101Z,18.04
2022-08-18T02:16:04.059Z,18.02
2022-08-18T02:17:06.727Z,18.00
2022-08-18T02:18:09.394Z,18.00
2022-08-18T02:19:12.066Z,17.99
2022-08-18T02:20:15.348Z,18.00
2022-08-18T02:21:19.116Z,17.97
2022-08-18T02:22:22.290Z,17.97
2022-08-18T02:23:24.890Z,17.97
2022-08-18T02:24:27.557Z,17.95
2022-08-18T02:25:30.225Z,17.98
2022-08-18T02:26:33.781Z,17.98
2022-08-18T02:27:36.393Z,17.95
2022-08-18T02:28:39.058Z,17.98
2022-08-18T02:29:41.727Z,17.95
2022-08-18T02:30:44.911Z,17.94
2022-08-18T02:31:47.536Z,17.92
2022-08-18T02:32:50.144Z,17.93
2022-08-18T02:33:52.883Z,17.93
2022-08-18T02:34:55.786Z,17.91
2022-08-18T02:35:58.454Z,17.94
2022-08-18T02:37:01.470Z,17.93
2022-08-18T02:38:04.122Z,17.94
2022-08-18T02:39:06.764Z,17.93
2022-08-18T02:40:10.389Z,17.92
2022-08-18T02:41:14.772Z,17.93
2022-08-18T02:42:17.604Z,17.91
2022-08-18T02:43:20.826Z,17.92
2022-08-18T02:44:23.499Z,17.86
2022-08-18T02:45:26.170Z,17.90
2022-08-18T02:46:31.424Z,17.91
2022-08-18T02:47:34.373Z,17.98
2022-08-18T02:48:37.215Z,18.03
2022-08-18T02:49:39.815Z,18.00
2022-08-18T02:50:42.582Z,18.05
2022-08-18T02:51:45.219Z,18.05
2022-08-18T02:52:47.917Z,18.09
2022-08-18T02:53:50.827Z,18.18
2022-08-18T02:54:55.307Z,18.31
2022-08-18T02:55:57.882Z,18.39
2022-08-18T02:57:01.058Z,18.50
2022-08-18T02:58:03.739Z,18.65
2022-08-18T02:59:06.414Z,18.76
2022-08-18T03:00:09.989Z,18.90
2022-08-18T03:01:14.555Z,18.97
2022-08-18T03:02:18.086Z,18.98
2022-08-18T03:03:20.716Z,19.06
2022-08-18T03:04:28.239Z,19.17
2022-08-18T03:05:27.834Z,19.35
2022-08-18T03:06:31.224Z,19.51
2022-08-18T03:07:33.893Z,19.61
2022-08-18T03:08:36.562Z,19.70
2022-08-18T03:09:39.230Z,19.81
2022-08-18T03:10:42.211Z,19.84
2022-08-18T03:11:45.180Z,19.84
2022-08-18T03:12:47.708Z,19.93
2022-08-18T03:13:50.619Z,19.89
2022-08-18T03:14:53.289Z,19.96
2022-08-18T03:15:57.008Z,20.04
2022-08-18T03:17:00.167Z,20.14
2022-08-18T03:18:02.842Z,20.16
2022-08-18T03:19:05.505Z,20.19
2022-08-18T03:20:08.686Z,20.20
2022-08-18T03:21:11.665Z,20.26
2022-08-18T03:22:27.781Z,20.29
2022-08-18T03:23:20.997Z,20.30
2022-08-18T03:24:25.505Z,20.32
2022-08-18T03:25:28.799Z,20.29
2022-08-18T03:26:31.773Z,20.28
2022-08-18T03:27:34.651Z,20.28
2022-08-18T03:28:37.315Z,20.26
2022-08-18T03:29:40.113Z,20.27
2022-08-18T03:30:43.057Z,20.34
2022-08-18T03:31:45.944Z,20.27
2022-08-18T03:32:48.602Z,20.17
2022-08-18T03:33:51.108Z,20.25
2022-08-18T03:34:53.750Z,20.23
2022-08-18T03:35:56.410Z,20.13
2022-08-18T03:36:59.390Z,20.12
2022-08-18T03:38:02.056Z,20.13
2022-08-18T03:39:04.768Z,20.18
2022-08-18T03:40:08.051Z,20.15
2022-08-18T03:41:11.002Z,20.16
2022-08-18T03:42:14.574Z,20.11
2022-08-18T03:43:49.525Z,20.09
2022-08-18T03:44:22.066Z,20.07
2022-08-18T03:45:24.836Z,19.99
2022-08-18T03:46:29.363Z,19.96
2022-08-18T03:47:33.859Z,20.00
2022-08-18T03:48:36.529Z,19.95
2022-08-18T03:49:39.322Z,19.95
2022-08-18T03:50:42.838Z,19.90
2022-08-18T03:51:45.456Z,20.00
2022-08-18T03:52:48.022Z,20.01
2022-08-18T03:53:50.693Z,19.85
2022-08-18T03:54:53.357Z,19.86
2022-08-18T03:55:55.935Z,19.83
2022-08-18T03:56:58.908Z,19.84
2022-08-18T03:58:01.574Z,19.90
2022-08-18T03:59:04.246Z,19.96
2022-08-18T04:00:07.330Z,20.06
2022-08-18T04:01:10.287Z,20.17
2022-08-18T04:02:12.930Z,20.28
2022-08-18T04:03:15.613Z,20.34
2022-08-18T04:04:18.209Z,20.46
2022-08-18T04:05:20.912Z,20.55
2022-08-18T04:06:30.280Z,20.56
2022-08-18T04:07:29.808Z,20.53
2022-08-18T04:08:32.674Z,20.51
2022-08-18T04:09:35.235Z,20.55
2022-08-18T04:10:38.318Z,20.62
2022-08-18T04:11:40.982Z,20.68
2022-08-18T04:12:43.551Z,20.63
2022-08-18T04:13:46.163Z,20.76
2022-08-18T04:14:49.410Z,20.85
2022-08-18T04:15:52.587Z,20.91
2022-08-18T04:16:55.557Z,20.94
2022-08-18T04:18:03.983Z,21.03
2022-08-18T04:19:02.638Z,20.97
2022-08-18T04:20:05.722Z,20.97
2022-08-18T04:21:08.393Z,21.01
2022-08-18T04:22:11.164Z,21.06
2022-08-18T04:23:15.913Z,21.09
2022-08-18T04:24:18.552Z,21.19
2022-08-18T04:25:21.219Z,21.23
2022-08-18T04:26:25.836Z,21.10
2022-08-18T04:27:28.503Z,21.15
2022-08-18T04:28:31.167Z,21.25
2022-08-18T04:29:34.038Z,21.35
2022-08-18T04:30:36.882Z,21.40
2022-08-18T04:31:39.488Z,21.31
2022-08-18T04:32:42.362Z,21.40
2022-08-18T04:33:45.028Z,21.49
2022-08-18T04:34:47.699Z,21.58
2022-08-18T04:35:50.262Z,21.63
2022-08-18T04:36:53.029Z,21.68
2022-08-18T04:37:55.783Z,21.83
2022-08-18T04:38:58.691Z,21.86
2022-08-18T04:40:01.430Z,22.01
2022-08-18T04:41:04.338Z,22.07
2022-08-18T04:42:07.002Z,22.08
2022-08-18T04:43:10.587Z,22.07
2022-08-18T04:44:13.565Z,22.15
2022-08-18T04:45:16.280Z,22.24
2022-08-18T04:46:22.740Z,22.39
2022-08-18T04:47:25.256Z,22.55
2022-08-18T04:48:27.929Z,22.69
2022-08-18T04:49:31.214Z,22.82
2022-08-18T04:50:34.807Z,23.01
2022-08-18T04:52:34.362Z,22.97
2022-08-18T04:52:42.127Z,22.53
2022-08-18T04:53:45.065Z,22.65
2022-08-18T04:54:47.732Z,22.64
2022-08-18T04:55:50.431Z,22.67
2022-08-18T04:56:53.276Z,22.77
2022-08-18T04:57:55.951Z,22.77
2022-08-18T04:58:58.574Z,22.63
2022-08-18T05:00:01.184Z,22.49
2022-08-18T05:01:04.311Z,22.57
2022-08-18T05:02:10.230Z,22.73
2022-08-18T05:03:11.847Z,22.83
2022-08-18T05:04:14.479Z,22.97
2022-08-18T05:05:17.088Z,23.05
2022-08-18T05:06:20.646Z,23.14
2022-08-18T05:07:23.207Z,23.28
2022-08-18T05:08:25.816Z,23.37
2022-08-18T05:09:28.891Z,23.45
2022-08-18T05:10:33.198Z,23.36
2022-08-18T05:11:35.885Z,23.56
2022-08-18T05:12:38.556Z,23.42
2022-08-18T05:13:41.102Z,23.30
2022-08-18T05:14:44.183Z,23.47
2022-08-18T05:16:09.077Z,23.56
2022-08-18T05:16:51.990Z,23.64
2022-08-18T05:17:55.039Z,23.65
2022-08-18T05:18:57.983Z,23.67
2022-08-18T05:20:01.723Z,23.64
2022-08-18T05:21:04.809Z,23.63
2022-08-18T05:22:09.631Z,23.65
2022-08-18T05:23:14.142Z,23.77
2022-08-18T05:24:17.120Z,23.84
2022-08-18T05:25:19.806Z,23.79
2022-08-18T05:26:22.666Z,24.00
2022-08-18T05:27:25.325Z,24.08
2022-08-18T05:28:28.024Z,24.18
2022-08-18T05:29:30.629Z,24.24
2022-08-18T05:30:36.834Z,24.26
2022-08-18T05:31:39.443Z,24.53
2022-08-18T05:32:49.241Z,24.61
2022-08-18T05:33:46.564Z,24.69
2022-08-18T05:34:49.232Z,24.70
2022-08-18T05:35:51.856Z,24.80
2022-08-18T05:36:54.675Z,24.94
2022-08-18T05:37:57.352Z,25.01
2022-08-18T05:39:00.030Z,24.99
2022-08-18T05:40:07.502Z,24.98
2022-08-18T05:41:07.462Z,25.00
2022-08-18T05:42:10.333Z,25.16
2022-08-18T05:43:13.149Z,25.22
2022-08-18T05:44:16.495Z,25.25
2022-08-18T05:45:19.094Z,25.26
2022-08-18T05:46:23.518Z,25.27
2022-08-18T05:47:26.174Z,25.35
2022-08-18T05:48:28.750Z,25.56
2022-08-18T05:49:31.441Z,25.74
2022-08-18T05:50:35.536Z,25.77
2022-08-18T05:51:38.185Z,25.77
2022-08-18T05:52:40.964Z,25.94
2022-08-18T05:53:43.688Z,26.13
2022-08-18T05:54:46.407Z,26.30
2022-08-18T05:55:49.074Z,26.35
2022-08-18T05:56:52.246Z,26.42
2022-08-18T05:57:54.819Z,26.51
2022-08-18T05:58:57.507Z,26.62
2022-08-18T06:00:00.264Z,26.61
2022-08-18T06:01:02.925Z,26.75
2022-08-18T06:02:05.638Z,26.84
2022-08-18T06:03:08.419Z,26.94
2022-08-18T06:04:11.550Z,26.99
2022-08-18T06:05:14.231Z,26.96
2022-08-18T06:06:17.400Z,27.05
2022-08-18T06:07:20.087Z,27.10
2022-08-18T06:08:22.736Z,27.29
2022-08-18T06:09:25.261Z,27.48
2022-08-18T06:10:28.686Z,27.75
2022-08-18T06:11:31.360Z,27.95
2022-08-18T06:12:37.624Z,27.95
2022-08-18T06:13:38.543Z,27.89
2022-08-18T06:14:41.208Z,27.66
2022-08-18T06:15:43.879Z,27.30
2022-08-18T06:16:48.658Z,27.42
2022-08-18T06:17:51.435Z,27.65
2022-08-18T06:18:54.347Z,27.80
2022-08-18T06:19:57.016Z,27.78
2022-08-18T06:20:59.886Z,27.99
2022-08-18T06:22:02.659Z,27.95
2022-08-18T06:23:05.330Z,27.97
2022-08-18T06:24:07.977Z,27.77
2022-08-18T06:25:10.574Z,27.80
2022-08-18T06:26:13.910Z,27.74
2022-08-18T06:27:16.527Z,27.96
2022-08-18T06:28:19.294Z,28.04
2022-08-18T06:29:21.961Z,27.85
2022-08-18T06:30:24.936Z,27.84
2022-08-18T06:31:29.566Z,28.07
2022-08-18T06:32:32.425Z,28.16
2022-08-18T06:33:35.096Z,28.18
2022-08-18T06:34:37.766Z,28.24
2022-08-18T06:35:40.331Z,28.39
2022-08-18T06:36:43.921Z,28.52
2022-08-18T06:37:46.591Z,28.76
2022-08-18T06:38:49.192Z,28.94
2022-08-18T06:39:51.873Z,28.90
2022-08-18T06:40:55.027Z,28.78
2022-08-18T06:41:57.878Z,28.63
2022-08-18T06:43:02.115Z,28.81
2022-08-18T06:44:05.434Z,28.84
2022-08-18T06:45:08.146Z,28.48
2022-08-18T06:46:11.430Z,28.71
2022-08-18T06:47:14.134Z,28.84
2022-08-18T06:48:16.800Z,28.90
2022-08-18T06:49:19.529Z,28.95
2022-08-18T06:50:23.843Z,29.20
2022-08-18T06:51:26.466Z,29.47
2022-08-18T06:52:29.093Z,29.47
2022-08-18T06:53:31.706Z,29.72
2022-08-18T06:54:34.311Z,29.87
2022-08-18T06:55:36.939Z,30.03
2022-08-18T06:56:39.917Z,29.76
2022-08-18T06:57:42.531Z,29.86
2022-08-18T06:58:46.374Z,30.02
2022-08-18T06:59:49.706Z,30.25
2022-08-18T07:00:54.990Z,30.44
2022-08-18T07:01:57.298Z,30.50
2022-08-18T07:02:59.995Z,30.44
2022-08-18T07:04:02.534Z,30.38
2022-08-18T07:05:05.265Z,30.02
2022-08-18T07:06:08.282Z,30.17
2022-08-18T07:07:10.949Z,30.43
2022-08-18T07:08:13.533Z,30.66
2022-08-18T07:09:16.286Z,30.69
2022-08-18T07:10:19.573Z,30.74
2022-08-18T07:11:22.204Z,30.91
2022-08-18T07:12:29.043Z,31.11
2022-08-18T07:13:30.293Z,31.27
2022-08-18T07:14:33.018Z,31.07
2022-08-18T07:15:35.689Z,30.82
2022-08-18T07:16:57.736Z,30.88
2022-08-18T07:17:44.162Z,31.10
2022-08-18T07:18:46.812Z,31.27
2022-08-18T07:19:49.389Z,31.56
2022-08-18T07:20:52.747Z,31.75
2022-08-18T07:21:55.385Z,31.72
2022-08-18T07:22:59.762Z,31.47
2022-08-18T07:24:23.577Z,31.36
2022-08-18T07:25:06.975Z,31.31
2022-08-18T07:26:10.366Z,31.36
2022-08-18T07:27:13.027Z,31.20
2022-08-18T07:28:15.595Z,30.94
2022-08-18T07:29:18.263Z,30.35
2022-08-18T07:30:21.342Z,30.35
2022-08-18T07:31:24.178Z,30.50
2022-08-18T07:32:26.661Z,30.70
2022-08-18T07:33:29.248Z,30.94
2022-08-18T07:34:32.045Z,31.19
2022-08-18T07:35:34.605Z,31.42
2022-08-18T07:36:37.665Z,31.51
2022-08-18T07:37:40.244Z,31.69
2022-08-18T07:38:44.153Z,31.63
2022-08-18T07:39:48.526Z,31.50
2022-08-18T07:40:51.720Z,31.30
2022-08-18T07:41:54.698Z,31.18
2022-08-18T07:43:01.261Z,31.34
2022-08-18T07:44:03.007Z,31.60
2022-08-18T07:45:05.679Z,31.83
2022-08-18T07:46:09.379Z,32.07
2022-08-18T07:47:12.018Z,32.04
2022-08-18T07:48:37.752Z,32.23
2022-08-18T07:49:21.979Z,32.35
2022-08-18T07:50:57.565Z,31.91
2022-08-18T07:51:33.303Z,32.07
2022-08-18T07:52:44.122Z,32.14
2022-08-18T07:53:38.302Z,32.23
2022-08-18T07:54:50.151Z,32.39
2022-08-18T07:55:45.890Z,32.54
2022-08-18T07:56:48.967Z,32.81
2022-08-18T07:57:51.637Z,32.96
2022-08-18T07:58:54.203Z,33.16
2022-08-18T07:59:57.902Z,33.39
2022-08-18T08:01:01.019Z,33.60
2022-08-18T08:02:04.251Z,33.64
2022-08-18T08:03:07.448Z,33.49
2022-08-18T08:04:10.424Z,33.67
2022-08-18T08:05:14.881Z,33.63
2022-08-18T08:06:17.816Z,33.31
2022-08-18T08:07:24.330Z,32.93
2022-08-18T08:08:25.744Z,32.81
2022-08-18T08:09:28.680Z,32.99
2022-08-18T08:10:32.571Z,33.11
2022-08-18T08:11:35.345Z,33.25
2022-08-18T08:12:38.831Z,33.31
2022-08-18T08:13:54.775Z,33.40
2022-08-18T08:14:45.818Z,32.99
2022-08-18T08:15:48.683Z,33.24
2022-08-18T08:16:51.862Z,33.50
2022-08-18T08:17:54.666Z,33.54
2022-08-18T08:18:57.407Z,33.82
2022-08-18T08:20:01.560Z,34.03
2022-08-18T08:21:04.700Z,33.65
2022-08-18T08:22:08.388Z,33.06
2022-08-18T08:23:11.055Z,33.34
2022-08-18T08:24:13.724Z,33.68
2022-08-18T08:25:42.608Z,33.83
2022-08-18T08:26:22.747Z,33.83
2022-08-18T08:27:25.419Z,33.95
2022-08-18T08:28:27.941Z,34.11
2022-08-18T08:29:30.489Z,34.36
2022-08-18T08:30:34.309Z,34.43
2022-08-18T08:31:38.416Z,34.27
2022-08-18T08:32:41.219Z,34.41
2022-08-18T08:33:43.789Z,34.37
2022-08-18T08:34:46.356Z,34.24
2022-08-18T08:35:50.618Z,34.47
2022-08-18T08:36:53.644Z,34.48
2022-08-18T08:37:58.424Z,33.72
2022-08-18T08:39:00.881Z,33.54
2022-08-18T08:40:03.963Z,33.57
2022-08-18T08:41:06.876Z,33.67
2022-08-18T08:42:31.509Z,33.87
2022-08-18T08:43:14.578Z,34.07
2022-08-18T08:44:17.342Z,34.25
2022-08-18T08:45:20.025Z,34.35
2022-08-18T08:46:24.729Z,34.48
2022-08-18T08:47:27.498Z,34.76
2022-08-18T08:48:30.175Z,34.99
2022-08-18T08:49:33.260Z,35.02
2022-08-18T08:50:36.437Z,34.85
2022-08-18T08:51:38.962Z,34.35
2022-08-18T08:52:41.729Z,34.50
2022-08-18T08:53:44.337Z,34.73
2022-08-18T08:54:47.004Z,34.85
2022-08-18T08:55:49.675Z,35.06
2022-08-18T08:56:52.753Z,35.12
2022-08-18T08:57:55.424Z,35.20
2022-08-18T08:58:58.053Z,34.99
2022-08-18T09:00:00.682Z,34.10
2022-08-18T09:01:03.225Z,34.43
2022-08-18T09:02:05.847Z,34.71
2022-08-18T09:03:08.872Z,34.92
2022-08-18T09:04:11.457Z,35.19
2022-08-18T09:05:14.005Z,35.37
2022-08-18T09:06:18.108Z,35.29
2022-08-18T09:07:20.969Z,35.33
2022-08-18T09:08:23.549Z,35.51
2022-08-18T09:09:26.217Z,35.75
2022-08-18T09:10:29.302Z,35.90
2022-08-18T09:11:32.314Z,36.03
2022-08-18T09:12:35.049Z,36.26
2022-08-18T09:13:37.822Z,36.39
2022-08-18T09:14:42.121Z,36.50
2022-08-18T09:15:44.758Z,36.30
2022-08-18T09:16:48.026Z,36.48
2022-08-18T09:17:50.735Z,36.46
2022-08-18T09:18:53.417Z,36.40
2022-08-18T09:19:55.981Z,36.72
2022-08-18T09:20:59.018Z,36.72
2022-08-18T09:22:01.732Z,36.41
2022-08-18T09:23:04.705Z,36.21
2022-08-18T09:24:07.380Z,36.15
2022-08-18T09:25:10.043Z,36.16
2022-08-18T09:26:13.329Z,36.14
2022-08-18T09:27:15.897Z,36.25
2022-08-18T09:28:18.668Z,36.04
2022-08-18T09:29:21.235Z,35.47
2022-08-18T09:30:25.539Z,35.42
2022-08-18T09:31:31.742Z,35.79
2022-08-18T09:32:33.546Z,36.10
2022-08-18T09:33:36.214Z,36.24
2022-08-18T09:34:38.990Z,36.29
2022-08-18T09:35:41.654Z,36.59
2022-08-18T09:36:44.589Z,36.57
2022-08-18T09:37:47.204Z,36.57
2022-08-18T09:38:51.710Z,36.59
2022-08-18T09:39:56.645Z,36.44
2022-08-18T09:41:03.049Z,36.17
2022-08-18T09:42:04.332Z,36.44
2022-08-18T09:43:08.966Z,36.74
2022-08-18T09:44:21.467Z,36.64
2022-08-18T09:45:16.489Z,36.86
2022-08-18T09:46:21.104Z,37.09
2022-08-18T09:47:27.376Z,37.35
2022-08-18T09:48:30.611Z,37.46
2022-08-18T09:49:38.181Z,37.51
2022-08-18T09:50:39.597Z,37.55
2022-08-18T09:51:42.272Z,37.27
2022-08-18T09:52:46.784Z,37.16
2022-08-18T09:53:50.789Z,37.01
2022-08-18T09:54:54.950Z,37.20
2022-08-18T09:56:01.381Z,37.42
2022-08-18T09:57:02.283Z,37.55
2022-08-18T09:58:06.585Z,37.51
2022-08-18T09:59:10.756Z,37.48
2022-08-18T10:00:14.377Z,37.77
2022-08-18T10:01:17.882Z,38.04
2022-08-18T10:03:30.978Z,38.03
2022-08-18T10:04:30.381Z,37.33
2022-08-18T10:05:33.059Z,37.10
2022-08-18T10:06:36.234Z,36.87
2022-08-18T10:07:43.272Z,36.41
2022-08-18T10:08:44.540Z,35.71
2022-08-18T10:09:47.317Z,35.07
2022-08-18T10:11:01.300Z,35.35
2022-08-18T10:11:55.320Z,35.39
2022-08-18T10:12:58.677Z,35.54
2022-08-18T10:14:01.981Z,35.85
2022-08-18T10:15:04.654Z,36.21
2022-08-18T10:16:10.950Z,36.57
2022-08-18T10:17:23.338Z,36.63
2022-08-18T10:18:16.548Z,36.32
2022-08-18T10:19:20.475Z,36.08
2022-08-18T10:20:26.693Z,36.10
2022-08-18T10:21:31.497Z,36.16
2022-08-18T10:22:33.812Z,36.06
2022-08-18T10:23:38.477Z,36.42
2022-08-18T10:24:42.297Z,36.39
2022-08-18T10:25:45.784Z,35.71
2022-08-18T10:26:54.262Z,35.84
2022-08-18T10:27:55.124Z,35.57
2022-08-18T10:28:57.788Z,35.76
2022-08-18T10:30:00.350Z,36.08
2022-08-18T10:31:06.227Z,35.75
2022-08-18T10:32:07.434Z,36.12
2022-08-18T10:33:18.178Z,36.34
2022-08-18T10:35:23.288Z,36.96
2022-08-18T10:36:25.881Z,37.34
2022-08-18T10:37:30.361Z,37.66
2022-08-18T10:38:33.179Z,37.79
2022-08-18T10:39:41.211Z,37.96
2022-08-18T10:40:40.891Z,38.09
2022-08-18T10:41:43.641Z,38.18
2022-08-18T10:42:46.930Z,38.28
2022-08-18T10:43:55.929Z,38.50
2022-08-18T10:44:55.129Z,38.58
2022-08-18T10:46:24.359Z,38.67
2022-08-18T10:47:03.441Z,38.77
2022-08-18T10:48:16.816Z,38.90
2022-08-18T10:49:12.216Z,39.09
2022-08-18T10:50:16.523Z,39.16
2022-08-18T10:51:21.295Z,39.03
2022-08-18T10:52:23.849Z,38.91
2022-08-18T10:53:44.264Z,38.94
2022-08-18T10:54:31.030Z,38.96
2022-08-18T10:55:48.944Z,38.97
2022-08-18T10:56:38.421Z,38.95
2022-08-18T10:57:41.100Z,38.92
2022-08-18T10:58:44.131Z,38.91
2022-08-18T10:59:49.177Z,39.02
2022-08-18T11:00:51.590Z,38.82
2022-08-18T11:01:54.329Z,38.65
2022-08-18T11:03:02.553Z,38.31
2022-08-18T11:04:08.816Z,38.21
2022-08-18T11:05:06.608Z,38.18
2022-08-18T11:06:11.653Z,38.18
2022-08-18T11:07:18.390Z,38.27
2022-08-18T11:08:20.700Z,38.21
2022-08-18T11:09:23.453Z,38.14
2022-08-18T11:10:29.888Z,38.37
2022-08-18T11:12:37.125Z,38.99
2022-08-18T11:13:41.197Z,39.22
2022-08-18T11:14:43.820Z,39.43
2022-08-18T11:15:46.446Z,39.60
2022-08-18T11:16:49.519Z,39.75
2022-08-18T11:17:53.886Z,39.80
2022-08-18T11:18:56.695Z,39.74
2022-08-18T11:20:02.848Z,39.75
2022-08-18T11:21:08.103Z,39.70
2022-08-18T11:22:10.935Z,39.77
2022-08-18T11:23:14.747Z,39.37
2022-08-18T11:24:17.726Z,39.20
2022-08-18T11:25:21.026Z,39.28
2022-08-18T11:26:25.209Z,39.45
2022-08-18T11:27:28.499Z,39.54
2022-08-18T11:28:32.537Z,39.55
2022-08-18T11:29:35.401Z,39.48
2022-08-18T11:30:40.218Z,39.47
2022-08-18T11:31:43.161Z,39.65
2022-08-18T11:32:55.390Z,39.57
2022-08-18T11:33:52.291Z,39.51
2022-08-18T11:34:55.573Z,39.61
2022-08-18T11:35:58.234Z,39.55
2022-08-18T11:37:01.736Z,39.72
2022-08-18T11:38:04.301Z,39.88
2022-08-18T11:39:07.072Z,39.99
2022-08-18T11:40:14.065Z,40.05
2022-08-18T11:41:17.377Z,40.18
2022-08-18T11:42:24.919Z,40.31
2022-08-18T11:43:25.532Z,40.45
2022-08-18T11:44:29.843Z,40.54
2022-08-18T11:45:32.512Z,40.73
2022-08-18T11:46:37.104Z,40.82
2022-08-18T11:47:40.100Z,40.93
2022-08-18T11:49:47.077Z,40.38
2022-08-18T11:50:54.520Z,40.35
2022-08-18T11:51:54.315Z,39.96
2022-08-18T11:52:57.473Z,39.89
2022-08-18T11:54:00.700Z,40.03
2022-08-18T11:56:13.282Z,40.48
2022-08-18T11:57:12.922Z,40.68
2022-08-18T11:58:17.380Z,40.51
2022-08-18T11:59:21.855Z,39.89
2022-08-18T12:00:25.507Z,38.95
2022-08-18T12:01:29.293Z,38.85
2022-08-18T12:02:33.887Z,38.84
2022-08-18T12:03:37.037Z,38.74
2022-08-18T12:04:39.699Z,39.00
2022-08-18T12:05:42.392Z,39.11
2022-08-18T12:06:47.189Z,39.42
2022-08-18T12:08:57.308Z,39.80
2022-08-18T12:11:27.314Z,40.11
2022-08-18T12:12:08.683Z,40.37
2022-08-18T12:13:13.093Z,40.46
2022-08-18T12:14:31.764Z,40.52
2022-08-18T12:15:23.852Z,40.55
2022-08-18T12:16:24.935Z,40.57
2022-08-18T12:17:28.010Z,40.56
2022-08-18T12:18:32.528Z,40.59
2022-08-18T12:19:35.558Z,40.66
2022-08-18T12:20:38.783Z,40.67
2022-08-18T12:21:41.309Z,40.60
2022-08-18T12:22:44.165Z,40.14
2022-08-18T12:23:52.184Z,39.70
2022-08-18T12:24:51.312Z,39.12
2022-08-18T12:25:53.872Z,38.84
2022-08-18T12:26:56.949Z,38.92
2022-08-18T12:28:01.575Z,39.13
2022-08-18T12:29:04.191Z,39.40
2022-08-18T12:30:09.160Z,39.66
2022-08-18T12:31:15.091Z,39.90
2022-08-18T12:32:49.738Z,40.09
2022-08-18T12:33:25.591Z,40.02
2022-08-18T12:34:27.319Z,39.48
2022-08-18T12:35:30.283Z,39.50
2022-08-18T12:36:33.736Z,39.31
2022-08-18T12:37:58.867Z,39.14
2022-08-18T12:38:41.169Z,39.07
2022-08-18T12:39:45.585Z,38.90
2022-08-18T12:40:48.556Z,38.96
2022-08-18T12:41:51.528Z,39.10
2022-08-18T12:42:56.369Z,39.04
2022-08-18T12:44:00.860Z,38.90
2022-08-18T12:45:03.917Z,38.83
2022-08-18T12:46:07.079Z,38.76
2022-08-18T12:47:11.546Z,38.62
2022-08-18T12:48:14.196Z,38.88
2022-08-18T12:49:17.620Z,39.23
2022-08-18T12:50:31.336Z,39.49
2022-08-18T12:51:30.707Z,39.64
2022-08-18T12:52:31.224Z,39.15
2022-08-18T12:53:58.566Z,39.11
2022-08-18T12:54:41.325Z,39.21
2022-08-18T12:55:44.224Z,38.97
2022-08-18T12:56:48.767Z,38.68
2022-08-18T12:57:53.823Z,38.37
2022-08-18T12:58:56.655Z,37.79
2022-08-18T12:59:59.945Z,37.92
2022-08-18T13:01:04.038Z,38.03
2022-08-18T13:02:06.815Z,37.93
2022-08-18T13:03:13.029Z,38.05
2022-08-18T13:04:15.760Z,38.28
2022-08-18T13:05:20.148Z,38.08
2022-08-18T13:06:27.482Z,37.97
2022-08-18T13:07:30.348Z,37.70
2022-08-18T13:08:33.534Z,37.41
2022-08-18T13:09:48.561Z,37.58
2022-08-18T13:10:45.892Z,37.86
2022-08-18T13:11:45.585Z,37.92
2022-08-18T13:12:48.764Z,37.78
2022-08-18T13:13:53.313Z,37.60
2022-08-18T13:14:56.978Z,37.16
2022-08-18T13:16:03.300Z,37.14
2022-08-18T13:17:05.687Z,37.35
2022-08-18T13:18:10.102Z,37.55
2022-08-18T13:19:14.511Z,37.65
2022-08-18T13:20:18.890Z,37.73
2022-08-18T13:21:22.235Z,37.97
2022-08-18T13:22:32.448Z,38.12
2022-08-18T13:23:29.599Z,38.14
2022-08-18T13:24:32.262Z,38.21
2022-08-18T13:25:39.773Z,38.18
2022-08-18T13:26:41.584Z,38.11
2022-08-18T13:27:45.091Z,38.01
2022-08-18T13:28:56.645Z,38.06
2022-08-18T13:29:52.690Z,38.14
2022-08-18T13:30:55.689Z,38.17
2022-08-18T13:32:00.063Z,38.18
2022-08-18T13:33:33.842Z,38.11
2022-08-18T13:34:11.864Z,37.98
2022-08-18T13:35:13.498Z,37.89
2022-08-18T13:36:16.780Z,37.85
2022-08-18T13:37:20.469Z,37.64
2022-08-18T13:38:26.071Z,37.37
2022-08-18T13:39:33.816Z,37.54
2022-08-18T13:40:33.499Z,37.45
2022-08-18T13:41:38.009Z,37.35
2022-08-18T13:42:50.972Z,37.33